Time;durP1;ratioP1;P1;durP2;ratioP2;P2;SDS_P1;SDS_P2;PMS_P1;PMS_P2;Temp;Humidity;BMP_temperature;BMP_pressure;BME280_temperature;BME280_humidity;BME280_pressure;Samples;Min_cycle;Max_cycle;Signal;HPM_P1;HPM_P2
2024/01/11 00:00:28;;;;;;;;;;;8.10;95.00;;;;;;7404031;19;19926;-74
2024/01/11 00:02:54;;;;;;;2.92;1.00;;;8.10;95.30;;;;;;7403488;19;19915;-74
2024/01/11 00:05:21;;;;;;;3.38;1.00;;;8.10;95.20;;;;;;7399174;19;19926;-74
2024/01/11 00:07:47;;;;;;;3.83;1.15;;;8.00;95.20;;;;;;7373584;19;19942;-75
2024/01/11 00:10:12;;;;;;;3.80;1.77;;;8.00;95.30;;;;;;7395068;19;20324;-74
2024/01/11 00:12:38;;;;;;;2.90;0.98;;;8.00;95.40;;;;;;7394274;19;19919;-73
2024/01/11 00:15:05;;;;;;;2.35;0.80;;;8.00;95.30;;;;;;7399355;19;19950;-74
2024/01/11 00:17:31;;;;;;;2.83;1.00;;;7.90;95.70;;;;;;7396781;19;19914;-75
2024/01/11 00:19:56;;;;;;;3.45;1.10;;;7.90;95.80;;;;;;7398413;19;19915;-74
2024/01/11 00:22:22;;;;;;;2.58;0.95;;;7.90;96.20;;;;;;7396128;19;20024;-74
2024/01/11 00:24:48;;;;;;;3.10;1.20;;;7.80;96.50;;;;;;7396665;19;19927;-75
2024/01/11 00:27:14;;;;;;;2.38;0.80;;;7.80;96.20;;;;;;7400121;19;19915;-74
2024/01/11 00:29:39;;;;;;;6.00;1.30;;;7.70;96.40;;;;;;7397368;19;20261;-74
2024/01/11 00:32:05;;;;;;;2.58;0.80;;;7.70;96.90;;;;;;7398772;19;20568;-74
2024/01/11 00:34:31;;;;;;;2.30;0.70;;;7.80;96.80;;;;;;7401708;19;19943;-73
2024/01/11 00:36:57;;;;;;;1.90;0.63;;;7.80;96.20;;;;;;7403955;19;19946;-73
2024/01/11 00:39:22;;;;;;;2.42;0.80;;;7.90;95.20;;;;;;7399266;19;19994;-72
2024/01/11 00:41:48;;;;;;;2.35;0.88;;;7.90;95.20;;;;;;7403070;19;19918;-73
2024/01/11 00:44:14;;;;;;;1.35;0.52;;;7.90;95.20;;;;;;7398176;19;19927;-73
2024/01/11 00:46:40;;;;;;;3.22;1.00;;;7.90;95.40;;;;;;7400337;19;19930;-73
2024/01/11 00:49:07;;;;;;;3.30;1.10;;;7.80;95.30;;;;;;7399338;19;19945;-74
2024/01/11 00:51:32;;;;;;;4.07;1.50;;;7.80;95.80;;;;;;7401635;19;19935;-74
2024/01/11 00:53:58;;;;;;;4.00;1.90;;;7.70;96.40;;;;;;7379056;19;19915;-74
2024/01/11 00:56:24;;;;;;;4.47;2.03;;;7.70;97.10;;;;;;7401712;19;19943;-74
2024/01/11 00:58:50;;;;;;;4.82;2.63;;;7.60;97.80;;;;;;7400388;19;20013;-73
2024/01/11 01:01:16;;;;;;;5.15;2.20;;;7.50;98.50;;;;;;7398867;19;19925;-74
2024/01/11 01:03:42;;;;;;;4.78;2.22;;;7.50;99.40;;;;;;7399840;19;19925;-74
2024/01/11 01:06:07;;;;;;;4.80;2.20;;;7.50;99.40;;;;;;7400208;19;19947;-72
2024/01/11 01:08:33;;;;;;;5.22;2.15;;;7.40;99.80;;;;;;7379027;19;19910;-74
2024/01/11 01:10:59;;;;;;;7.30;3.40;;;7.40;99.90;;;;;;7399469;19;19914;-74
2024/01/11 01:13:25;;;;;;;7.15;3.70;;;7.50;99.90;;;;;;7402568;19;19982;-75
2024/01/11 01:15:51;;;;;;;10.63;5.63;;;7.50;99.90;;;;;;7399139;19;19943;-74
2024/01/11 01:18:16;;;;;;;13.32;6.43;;;7.50;99.90;;;;;;7399515;19;19915;-74
2024/01/11 01:20:42;;;;;;;13.20;6.50;;;7.40;99.90;;;;;;7397577;19;20482;-73
2024/01/11 01:23:09;;;;;;;12.27;6.97;;;7.40;99.90;;;;;;7399965;19;19930;-74
2024/01/11 01:25:35;;;;;;;15.10;7.80;;;7.30;99.90;;;;;;7399073;19;19929;-73
2024/01/11 01:28:01;;;;;;;15.13;8.80;;;7.40;99.90;;;;;;7401669;19;19915;-74
2024/01/11 01:30:27;;;;;;;14.88;8.05;;;7.40;99.90;;;;;;7395977;19;19925;-74
2024/01/11 01:32:53;;;;;;;14.30;8.30;;;7.40;99.90;;;;;;7401627;19;19923;-74
2024/01/11 01:35:19;;;;;;;15.70;8.82;;;7.50;99.90;;;;;;7397327;19;20483;-75
2024/01/11 01:37:45;;;;;;;13.57;7.45;;;7.50;99.90;;;;;;7399555;19;19914;-74
2024/01/11 01:40:11;;;;;;;14.57;7.95;;;7.50;99.90;;;;;;7396883;19;19917;-73
2024/01/11 01:42:43;;;;;;;15.43;7.95;;;7.60;99.90;;;;;;7399641;19;19918;-73
2024/01/11 01:45:09;;;;;;;13.68;7.85;;;7.60;99.90;;;;;;7395476;19;19957;-74
2024/01/11 01:47:35;;;;;;;15.48;7.80;;;7.70;99.90;;;;;;7396218;19;19922;-74
2024/01/11 01:50:01;;;;;;;16.50;8.10;;;7.70;99.90;;;;;;7398041;19;19926;-73
2024/01/11 01:52:27;;;;;;;13.80;7.68;;;7.80;99.90;;;;;;7399181;19;20006;-73
2024/01/11 01:54:53;;;;;;;13.75;8.30;;;7.80;99.90;;;;;;7395876;19;19930;-73
2024/01/11 01:57:20;;;;;;;17.70;8.98;;;7.80;99.90;;;;;;7398262;19;19929;-73
2024/01/11 01:59:49;;;;;;;16.83;9.70;;;7.80;99.90;;;;;;7398352;19;20255;-74
2024/01/11 02:02:15;;;;;;;15.95;8.75;;;7.70;99.90;;;;;;7397991;19;19915;-74
2024/01/11 02:04:42;;;;;;;14.95;8.93;;;7.70;99.90;;;;;;7397899;19;20067;-75
2024/01/11 02:07:08;;;;;;;17.70;9.85;;;7.70;99.90;;;;;;7398194;19;20001;-73
2024/01/11 02:09:37;;;;;;;14.30;7.97;;;7.70;99.90;;;;;;7398812;19;19921;-74
2024/01/11 02:12:04;;;;;;;13.43;7.75;;;7.80;99.90;;;;;;7398686;19;19922;-73
2024/01/11 02:14:31;;;;;;;12.13;6.90;;;7.80;99.90;;;;;;7398639;19;19914;-75
2024/01/11 02:16:58;;;;;;;10.57;6.22;;;7.80;99.90;;;;;;7399286;19;20035;-73
2024/01/11 02:19:24;;;;;;;7.65;4.03;;;7.80;99.90;;;;;;7394886;19;19979;-73
2024/01/11 02:21:54;;;;;;;7.32;3.72;;;7.90;99.90;;;;;;7398333;19;19918;-74
2024/01/11 02:24:21;;;;;;;6.93;3.22;;;7.90;99.90;;;;;;7397915;19;19949;-74
2024/01/11 02:27:03;;;;;;;6.65;3.25;;;8.00;99.90;;;;;;7400714;19;19922;-73
2024/01/11 02:29:30;;;;;;;6.07;3.67;;;8.00;99.90;;;;;;7398425;19;20286;-74
2024/01/11 02:31:56;;;;;;;6.63;3.13;;;8.00;99.90;;;;;;7398739;19;19939;-75
2024/01/11 02:34:27;;;;;;;6.13;2.75;;;8.00;99.90;;;;;;7397708;19;20391;-73
2024/01/11 02:36:54;;;;;;;5.80;2.90;;;8.00;99.90;;;;;;7397801;19;19922;-73
2024/01/11 02:39:20;;;;;;;7.38;3.95;;;8.10;99.90;;;;;;7396863;19;20225;-74
2024/01/11 02:41:49;;;;;;;6.90;3.40;;;8.10;99.90;;;;;;7395797;19;19921;-73
2024/01/11 02:44:15;;;;;;;7.30;3.28;;;8.10;99.90;;;;;;7399053;19;19922;-75
2024/01/11 02:46:41;;;;;;;6.65;2.78;;;8.10;99.90;;;;;;7394599;19;19942;-75
2024/01/11 02:49:07;;;;;;;4.15;2.20;;;8.10;99.90;;;;;;7395016;19;19926;-73
2024/01/11 02:51:33;;;;;;;5.50;2.72;;;8.10;99.90;;;;;;7394671;19;19919;-74
2024/01/11 02:53:58;;;;;;;4.80;2.40;;;8.10;99.90;;;;;;7398167;19;19918;-74
2024/01/11 02:56:25;;;;;;;4.72;2.40;;;8.10;99.90;;;;;;7397004;19;19922;-74
2024/01/11 02:58:51;;;;;;;5.80;2.30;;;8.20;99.90;;;;;;7396579;19;19947;-75
2024/01/11 03:01:16;;;;;;;4.47;1.92;;;8.20;99.90;;;;;;7398101;19;19931;-74
2024/01/11 03:03:42;;;;;;;5.50;2.30;;;8.20;99.90;;;;;;7402659;19;19921;-73
2024/01/11 03:06:09;;;;;;;5.18;2.25;;;8.30;99.90;;;;;;7398348;19;19923;-74
2024/01/11 03:08:35;;;;;;;5.40;2.50;;;8.30;99.40;;;;;;7403919;19;20011;-73
2024/01/11 03:11:01;;;;;;;6.05;2.50;;;8.30;99.50;;;;;;7402088;19;19982;-74
2024/01/11 03:13:27;;;;;;;5.25;2.30;;;8.30;99.30;;;;;;7401353;19;19952;-74
2024/01/11 03:15:52;;;;;;;4.70;2.35;;;8.30;99.40;;;;;;7399387;19;20329;-75
2024/01/11 03:18:18;;;;;;;6.72;2.38;;;8.30;99.30;;;;;;7401016;19;19914;-74
2024/01/11 03:20:44;;;;;;;5.30;2.67;;;8.30;98.90;;;;;;7403277;19;19923;-74
2024/01/11 03:23:10;;;;;;;5.82;2.40;;;8.30;98.50;;;;;;7403648;19;20323;-73
2024/01/11 03:25:35;;;;;;;5.15;2.38;;;8.40;98.20;;;;;;7402944;19;19914;-73
2024/01/11 03:28:02;;;;;;;4.95;2.00;;;8.40;98.10;;;;;;7405476;19;20351;-73
2024/01/11 03:30:28;;;;;;;6.53;2.28;;;8.40;98.20;;;;;;7399197;19;19934;-74
2024/01/11 03:32:54;;;;;;;5.55;2.67;;;8.40;98.00;;;;;;7402565;19;19921;-73
2024/01/11 03:35:21;;;;;;;4.40;2.10;;;8.40;97.70;;;;;;7401870;19;19926;-75
2024/01/11 03:37:46;;;;;;;5.20;2.00;;;8.40;97.40;;;;;;7399403;19;19982;-72
2024/01/11 03:40:12;;;;;;;5.47;2.30;;;8.40;96.90;;;;;;7401746;19;19935;-74
2024/01/11 03:42:38;;;;;;;4.30;2.20;;;8.40;96.40;;;;;;7403678;19;19926;-74
2024/01/11 03:45:04;;;;;;;5.03;1.80;;;8.40;96.50;;;;;;7402465;19;19931;-73
2024/01/11 03:47:30;;;;;;;4.60;1.92;;;8.40;96.20;;;;;;7407662;19;19915;-74
2024/01/11 03:49:56;;;;;;;5.60;2.15;;;8.40;96.20;;;;;;7405351;19;19939;-74
2024/01/11 03:52:22;;;;;;;5.97;2.40;;;8.40;96.30;;;;;;7403165;19;20022;-72
2024/01/11 03:54:48;;;;;;;5.70;2.40;;;8.40;96.30;;;;;;7402326;19;20383;-75
2024/01/11 03:57:14;;;;;;;5.05;2.70;;;8.30;96.40;;;;;;7400708;19;19914;-73
2024/01/11 03:59:40;;;;;;;4.50;2.28;;;8.30;96.50;;;;;;7399979;19;19927;-73
2024/01/11 04:02:07;;;;;;;5.80;2.70;;;8.30;97.00;;;;;;7402149;19;19910;-74
2024/01/11 04:04:33;;;;;;;6.20;3.00;;;8.30;97.30;;;;;;7401957;19;20254;-73
2024/01/11 04:06:59;;;;;;;5.90;2.85;;;8.30;97.50;;;;;;7405198;19;19939;-73
2024/01/11 04:09:24;;;;;;;6.07;3.10;;;8.30;97.40;;;;;;7395920;19;20273;-74
2024/01/11 04:11:50;;;;;;;5.78;2.60;;;8.30;97.70;;;;;;7404553;19;19910;-74
2024/01/11 04:14:16;;;;;;;4.60;2.25;;;8.40;97.60;;;;;;7397473;19;19935;-73
2024/01/11 04:16:45;;;;;;;5.80;2.70;;;8.30;97.70;;;;;;7403813;19;19949;-73
2024/01/11 04:19:11;;;;;;;5.07;2.22;;;8.30;97.70;;;;;;7398710;19;19926;-73
2024/01/11 04:21:39;;;;;;;6.13;2.83;;;8.30;98.00;;;;;;7403015;19;19918;-72
2024/01/11 04:24:06;;;;;;;6.18;2.60;;;8.40;97.70;;;;;;7399474;19;19946;-72
2024/01/11 04:26:32;;;;;;;5.05;2.40;;;8.30;97.50;;;;;;7402697;19;20364;-73
2024/01/11 04:28:59;;;;;;;4.82;2.42;;;8.30;97.00;;;;;;7401121;19;19939;-74
2024/01/11 04:31:26;;;;;;;5.20;2.50;;;8.40;96.50;;;;;;7399035;19;19925;-73
2024/01/11 04:33:52;;;;;;;5.32;2.70;;;8.40;95.90;;;;;;7400696;19;19914;-73
2024/01/11 04:36:18;;;;;;;5.25;2.58;;;8.30;96.30;;;;;;7401013;19;19931;-74
2024/01/11 04:38:46;;;;;;;4.80;2.47;;;8.30;96.90;;;;;;7398787;19;19924;-73
2024/01/11 04:41:13;;;;;;;6.53;2.50;;;8.30;97.60;;;;;;7399720;19;19946;-73
2024/01/11 04:43:43;;;;;;;6.10;2.67;;;8.20;97.70;;;;;;7400127;19;19926;-73
2024/01/11 04:46:19;;;;;;;5.65;2.85;;;8.30;97.80;;;;;;7399825;19;20268;-72
2024/01/11 04:48:46;;;;;;;6.03;3.05;;;8.40;97.10;;;;;;7398515;19;19919;-73
2024/01/11 04:51:13;;;;;;;6.07;3.30;;;8.40;96.20;;;;;;7400684;19;19929;-72
2024/01/11 04:53:40;;;;;;;6.93;3.50;;;8.40;94.30;;;;;;7400402;19;19944;-73
2024/01/11 04:56:10;;;;;;;7.53;3.55;;;8.40;95.00;;;;;;7400109;19;19919;-74
2024/01/11 04:58:39;;;;;;;5.53;2.67;;;8.40;94.40;;;;;;7400767;19;19920;-74
2024/01/11 05:01:06;;;;;;;6.78;3.20;;;8.40;94.50;;;;;;7401692;19;19927;-72
2024/01/11 05:03:32;;;;;;;5.72;3.65;;;8.30;94.50;;;;;;7401878;19;20300;-73
2024/01/11 05:05:58;;;;;;;6.30;2.97;;;8.30;94.00;;;;;;7402557;19;20340;-73
2024/01/11 05:08:25;;;;;;;5.53;2.70;;;8.40;92.10;;;;;;7397092;19;19942;-72
2024/01/11 05:10:51;;;;;;;7.43;3.70;;;8.30;91.60;;;;;;7401256;19;20545;-73
2024/01/11 05:13:18;;;;;;;7.25;3.50;;;8.40;90.60;;;;;;7397540;19;19921;-73
2024/01/11 05:15:44;;;;;;;5.80;2.72;;;8.30;90.60;;;;;;7400492;19;19911;-73
2024/01/11 05:18:10;;;;;;;5.85;3.17;;;8.30;90.20;;;;;;7400558;19;20642;-74
2024/01/11 05:20:36;;;;;;;6.40;3.15;;;8.20;90.30;;;;;;7400761;19;19919;-73
2024/01/11 05:23:02;;;;;;;5.65;2.58;;;8.20;90.40;;;;;;7401545;19;19922;-73
2024/01/11 05:25:31;;;;;;;6.03;3.00;;;8.20;90.10;;;;;;7400098;19;19934;-74
2024/01/11 05:27:57;;;;;;;6.38;3.05;;;8.20;89.40;;;;;;7400720;19;19943;-73
2024/01/11 05:30:22;;;;;;;5.93;3.15;;;8.20;91.10;;;;;;7395550;19;20711;-73
2024/01/11 05:32:48;;;;;;;8.77;4.45;;;8.30;91.60;;;;;;7400331;19;19915;-74
2024/01/11 05:35:14;;;;;;;6.80;3.47;;;8.30;91.30;;;;;;7396073;19;19911;-73
2024/01/11 05:37:39;;;;;;;6.18;2.95;;;8.30;91.10;;;;;;7401655;19;19982;-73
2024/01/11 05:40:06;;;;;;;6.57;3.10;;;8.30;90.40;;;;;;7398249;19;19918;-74
2024/01/11 05:42:33;;;;;;;6.10;3.25;;;8.30;90.10;;;;;;7399928;19;19910;-74
2024/01/11 05:44:59;;;;;;;5.80;3.40;;;8.10;90.30;;;;;;7400819;19;20195;-74
2024/01/11 05:47:24;;;;;;;6.70;3.33;;;8.10;91.20;;;;;;7400957;19;19949;-76
2024/01/11 05:49:50;;;;;;;5.65;3.22;;;8.10;91.20;;;;;;7398944;19;20253;-74
2024/01/11 05:52:16;;;;;;;7.40;3.08;;;8.00;91.30;;;;;;7399635;19;20700;-72
2024/01/11 05:54:42;;;;;;;6.03;2.80;;;8.10;92.10;;;;;;7397157;19;19924;-73
2024/01/11 05:57:08;;;;;;;6.18;3.33;;;8.00;91.50;;;;;;7399551;19;19994;-73
2024/01/11 05:59:33;;;;;;;6.28;3.15;;;8.10;91.70;;;;;;7396354;19;19919;-73
2024/01/11 06:02:01;;;;;;;7.10;3.60;;;8.10;90.90;;;;;;7399926;19;19923;-73
2024/01/11 06:04:27;;;;;;;8.50;3.90;;;8.10;90.60;;;;;;7394638;19;19918;-74
2024/01/11 06:06:53;;;;;;;6.25;3.00;;;8.00;90.80;;;;;;7374927;19;20055;-74
2024/01/11 06:09:18;;;;;;;6.50;3.78;;;8.10;90.40;;;;;;7396284;19;19914;-74
2024/01/11 06:11:44;;;;;;;7.05;3.55;;;8.10;90.30;;;;;;7398987;19;19914;-74
2024/01/11 06:14:10;;;;;;;5.93;2.97;;;8.00;90.70;;;;;;7395709;19;19923;-75
2024/01/11 06:16:36;;;;;;;6.22;3.38;;;8.00;90.80;;;;;;7397691;19;19911;-73
2024/01/11 06:19:02;;;;;;;7.10;3.83;;;8.00;90.80;;;;;;7399412;19;19918;-73
2024/01/11 06:21:28;;;;;;;7.72;3.97;;;7.90;91.00;;;;;;7398117;19;20725;-73
2024/01/11 06:23:54;;;;;;;6.93;3.90;;;7.90;90.80;;;;;;7400685;19;19947;-73
2024/01/11 06:26:19;;;;;;;5.90;3.08;;;7.90;91.20;;;;;;7397682;19;19918;-73
2024/01/11 06:28:45;;;;;;;7.68;3.53;;;7.90;91.10;;;;;;7398248;19;19910;-74
2024/01/11 06:31:11;;;;;;;7.15;3.35;;;7.90;91.00;;;;;;7397945;19;19938;-73
2024/01/11 06:33:37;;;;;;;7.25;3.35;;;7.90;91.30;;;;;;7399502;19;19997;-74
2024/01/11 06:36:07;;;;;;;6.65;3.75;;;7.80;91.20;;;;;;7400263;19;20268;-73
2024/01/11 06:38:35;;;;;;;8.02;4.30;;;7.80;91.60;;;;;;7403093;19;19929;-73
2024/01/11 06:41:01;;;;;;;7.13;3.72;;;7.70;92.30;;;;;;7403302;19;19918;-73
2024/01/11 06:43:27;;;;;;;7.47;3.60;;;7.70;92.50;;;;;;7401935;19;19930;-72
2024/01/11 06:45:53;;;;;;;6.72;3.40;;;7.70;92.20;;;;;;7403485;19;19922;-72
2024/01/11 06:48:19;;;;;;;6.13;3.28;;;7.70;92.00;;;;;;7403177;19;19943;-73
2024/01/11 06:50:45;;;;;;;7.80;4.00;;;7.70;91.80;;;;;;7408058;19;19927;-73
2024/01/11 06:53:10;;;;;;;6.93;3.42;;;7.80;91.60;;;;;;7405600;19;19926;-73
2024/01/11 06:55:37;;;;;;;6.82;3.40;;;7.80;91.80;;;;;;7401219;19;19940;-73
2024/01/11 06:58:03;;;;;;;6.72;3.80;;;7.80;91.60;;;;;;7402302;19;19990;-73
2024/01/11 07:00:29;;;;;;;7.15;3.58;;;7.70;91.50;;;;;;7402084;19;20460;-73
2024/01/11 07:02:55;;;;;;;8.10;4.30;;;7.70;92.00;;;;;;7406541;19;19918;-73
2024/01/11 07:05:21;;;;;;;6.25;3.33;;;7.80;91.80;;;;;;7400511;19;21464;-74
2024/01/11 07:07:47;;;;;;;6.40;3.53;;;7.70;92.00;;;;;;7403052;19;19940;-72
2024/01/11 07:10:13;;;;;;;6.70;3.47;;;7.80;91.90;;;;;;7402589;19;19923;-73
2024/01/11 07:12:41;;;;;;;7.30;3.03;;;7.80;91.70;;;;;;7403809;19;19921;-73
2024/01/11 07:15:07;;;;;;;8.25;4.30;;;7.80;91.50;;;;;;7406152;19;20207;-73
2024/01/11 07:17:34;;;;;;;5.82;3.08;;;7.80;91.50;;;;;;7406500;19;19922;-73
2024/01/11 07:19:59;;;;;;;6.55;3.55;;;7.80;91.50;;;;;;7404801;19;20406;-73
2024/01/11 07:22:25;;;;;;;9.18;3.33;;;7.80;90.80;;;;;;7403096;19;19957;-73
2024/01/11 07:24:51;;;;;;;6.88;3.42;;;7.90;90.70;;;;;;7406955;19;19961;-74
2024/01/11 07:27:17;;;;;;;6.97;3.47;;;7.90;90.20;;;;;;7402668;19;20369;-73
2024/01/11 07:29:43;;;;;;;8.23;3.35;;;7.90;90.40;;;;;;7405199;19;19918;-74
2024/01/11 07:32:08;;;;;;;8.30;3.50;;;7.80;90.30;;;;;;7402334;19;19925;-74
2024/01/11 07:34:34;;;;;;;7.25;3.97;;;7.80;90.80;;;;;;7404164;19;20217;-76
2024/01/11 07:37:00;;;;;;;6.60;3.10;;;7.80;90.90;;;;;;7404170;19;19927;-74
2024/01/11 07:39:26;;;;;;;7.13;4.00;;;7.90;90.70;;;;;;7401737;19;20329;-73
2024/01/11 07:41:53;;;;;;;6.25;3.33;;;7.90;90.40;;;;;;7405938;19;20336;-73
2024/01/11 07:44:20;;;;;;;6.35;3.13;;;7.90;90.20;;;;;;7402143;19;19919;-73
2024/01/11 07:46:46;;;;;;;8.10;3.45;;;7.90;90.40;;;;;;7402632;19;20528;-72
2024/01/11 07:49:12;;;;;;;6.00;3.20;;;8.00;89.30;;;;;;7402861;19;19919;-73
2024/01/11 07:51:38;;;;;;;10.27;3.20;;;7.90;89.80;;;;;;7403951;19;19918;-73
2024/01/11 07:54:05;;;;;;;6.90;3.13;;;7.90;90.10;;;;;;7404959;19;19931;-74
2024/01/11 07:56:31;;;;;;;5.93;3.03;;;7.90;90.20;;;;;;7404880;19;20446;-74
2024/01/11 07:58:56;;;;;;;7.45;3.28;;;7.90;89.10;;;;;;7405771;19;19921;-74
2024/01/11 08:01:22;;;;;;;5.47;2.75;;;7.90;89.50;;;;;;7399457;19;19942;-74
2024/01/11 08:03:51;;;;;;;6.55;4.15;;;7.90;88.30;;;;;;7405829;19;20409;-74
2024/01/11 08:06:17;;;;;;;6.60;3.60;;;7.90;88.30;;;;;;7403455;19;20257;-74
2024/01/11 08:08:43;;;;;;;6.22;3.90;;;7.90;88.50;;;;;;7403771;19;20305;-74
2024/01/11 08:11:12;;;;;;;6.55;3.53;;;7.90;89.10;;;;;;7403385;19;19934;-73
2024/01/11 08:13:38;;;;;;;7.50;3.30;;;7.90;90.10;;;;;;7403828;19;19919;-74
2024/01/11 08:16:07;;;;;;;7.72;3.72;;;7.90;90.10;;;;;;7403827;19;19918;-73
2024/01/11 08:18:32;;;;;;;6.60;3.78;;;7.80;90.20;;;;;;7404189;19;19914;-73
2024/01/11 08:20:58;;;;;;;6.78;3.63;;;7.80;90.80;;;;;;7404172;19;20022;-73
2024/01/11 08:23:24;;;;;;;8.57;3.63;;;7.80;90.90;;;;;;7403900;19;19927;-74
2024/01/11 08:25:52;;;;;;;5.90;3.70;;;7.60;91.30;;;;;;7406601;19;20277;-73
2024/01/11 08:28:18;;;;;;;7.82;4.30;;;7.60;91.80;;;;;;7402164;19;19998;-75
2024/01/11 08:30:44;;;;;;;6.28;3.10;;;7.60;91.60;;;;;;7403921;19;19922;-74
2024/01/11 08:33:10;;;;;;;7.47;4.18;;;7.60;91.70;;;;;;7403645;19;20335;-72
2024/01/11 08:35:36;;;;;;;6.97;3.13;;;7.70;91.70;;;;;;7399289;19;19911;-73
2024/01/11 08:38:02;;;;;;;7.18;3.22;;;7.70;91.20;;;;;;7403333;19;19922;-75
2024/01/11 08:40:28;;;;;;;6.82;3.80;;;7.70;91.00;;;;;;7401698;19;19914;-73
2024/01/11 08:42:54;;;;;;;8.45;3.35;;;7.70;91.30;;;;;;7405596;19;20585;-73
2024/01/11 08:45:22;;;;;;;7.03;3.90;;;7.80;91.20;;;;;;7401245;19;20351;-73
2024/01/11 08:47:48;;;;;;;7.18;3.50;;;7.90;90.90;;;;;;7402521;19;19922;-73
2024/01/11 08:50:15;;;;;;;6.07;3.33;;;8.00;90.00;;;;;;7389289;19;19915;-73
2024/01/11 08:52:42;;;;;;;6.47;3.47;;;8.30;88.00;;;;;;7397866;19;19919;-74
2024/01/11 08:55:08;;;;;;;6.38;3.38;;;9.10;81.60;;;;;;7399221;19;20490;-75
2024/01/11 08:57:38;;;;;;;5.57;3.10;;;10.40;71.00;;;;;;7396170;19;19907;-74
2024/01/11 09:00:06;;;;;;;5.82;3.17;;;10.60;64.00;;;;;;7383888;19;19922;-75
2024/01/11 09:02:32;;;;;;;6.07;3.13;;;11.10;61.10;;;;;;7381403;19;19918;-75
2024/01/11 09:04:58;;;;;;;6.35;3.80;;;10.50;62.10;;;;;;7387106;19;19929;-75
2024/01/11 09:07:24;;;;;;;6.05;3.70;;;10.40;65.70;;;;;;7378470;19;20017;-75
2024/01/11 09:09:50;;;;;;;6.63;3.47;;;10.20;65.50;;;;;;7398161;19;20018;-75
2024/01/11 09:12:16;;;;;;;5.82;3.45;;;9.80;69.20;;;;;;7403688;19;19918;-75
2024/01/11 09:14:42;;;;;;;5.32;3.00;;;9.80;71.00;;;;;;7407546;19;19929;-75
2024/01/11 09:17:08;;;;;;;7.00;3.97;;;9.90;69.80;;;;;;7409832;19;19952;-74
2024/01/11 09:19:34;;;;;;;6.03;3.13;;;10.00;70.50;;;;;;7402458;19;20021;-74
2024/01/11 09:22:00;;;;;;;5.82;3.13;;;9.90;67.20;;;;;;7402881;19;20428;-74
2024/01/11 09:24:26;;;;;;;5.65;2.67;;;10.20;68.10;;;;;;7378968;19;19990;-75
2024/01/11 09:26:51;;;;;;;7.03;2.85;;;10.10;66.10;;;;;;7387015;19;19974;-75
2024/01/11 09:29:17;;;;;;;5.97;3.17;;;10.40;64.10;;;;;;7391320;19;19919;-74
2024/01/11 09:31:46;;;;;;;6.82;3.78;;;10.50;63.60;;;;;;7392350;19;20012;-74
2024/01/11 09:34:12;;;;;;;7.88;3.28;;;10.30;64.20;;;;;;7386795;19;20334;-76
2024/01/11 09:36:40;;;;;;;5.47;3.10;;;10.40;61.00;;;;;;7349190;19;19919;-75
2024/01/11 09:39:07;;;;;;;6.28;3.42;;;10.40;64.60;;;;;;7397709;19;19914;-75
2024/01/11 09:41:36;;;;;;;7.32;3.78;;;10.40;64.90;;;;;;7392191;19;19935;-74
2024/01/11 09:44:04;;;;;;;5.78;3.17;;;10.30;65.40;;;;;;7397550;19;19927;-75
2024/01/11 09:46:31;;;;;;;5.75;3.13;;;10.50;63.80;;;;;;7397516;19;19930;-74
2024/01/11 09:48:58;;;;;;;;;;;10.70;62.10;;;;;;7393315;19;20360;-72
2024/01/11 09:51:26;;;;;;;5.30;3.15;;;11.30;63.80;;;;;;7385731;19;19982;-72
2024/01/11 09:53:54;;;;;;;5.53;3.40;;;12.00;56.60;;;;;;7389884;19;20776;-75
2024/01/11 09:56:20;;;;;;;6.75;3.65;;;12.20;51.10;;;;;;7385764;19;19915;-74
2024/01/11 09:58:50;;;;;;;4.95;3.00;;;11.80;52.00;;;;;;7390191;19;19951;-74
2024/01/11 10:01:19;;;;;;;5.47;3.10;;;11.70;51.30;;;;;;7387001;19;19943;-75
2024/01/11 10:03:48;;;;;;;7.15;3.28;;;12.00;52.00;;;;;;7396356;19;19920;-74
2024/01/11 10:06:15;;;;;;;6.45;3.72;;;11.60;51.60;;;;;;7395183;19;19973;-75
2024/01/11 10:08:41;;;;;;;5.93;3.53;;;11.60;52.90;;;;;;7390655;19;19930;-73
2024/01/11 10:11:07;;;;;;;6.97;3.95;;;11.40;53.30;;;;;;7385949;19;19922;-75
2024/01/11 10:13:35;;;;;;;5.88;3.63;;;11.40;56.20;;;;;;7398237;19;19923;-75
2024/01/11 10:16:09;;;;;;;5.72;3.47;;;11.40;56.20;;;;;;7393530;19;19926;-74
2024/01/11 10:18:35;;;;;;;7.00;3.45;;;11.60;55.00;;;;;;7398884;19;19930;-74
2024/01/11 10:21:05;;;;;;;5.60;3.38;;;11.60;54.90;;;;;;7373099;19;19919;-73
2024/01/11 10:23:33;;;;;;;5.78;3.70;;;11.50;53.20;;;;;;7388343;19;19918;-74
2024/01/11 10:26:00;;;;;;;6.97;3.55;;;12.10;51.70;;;;;;7392255;19;19915;-74
2024/01/11 10:28:26;;;;;;;7.15;3.13;;;12.20;48.70;;;;;;7393987;19;19929;-74
2024/01/11 10:30:53;;;;;;;6.28;3.13;;;12.40;46.00;;;;;;7391995;19;19963;-74
2024/01/11 10:33:22;;;;;;;4.57;2.88;;;11.90;44.20;;;;;;7381622;19;25288;-74
2024/01/11 10:35:51;;;;;;;5.80;3.30;;;12.00;45.90;;;;;;7371703;19;19919;-73
2024/01/11 10:38:17;;;;;;;5.03;2.90;;;11.90;46.90;;;;;;7396921;19;19918;-73
2024/01/11 10:40:44;;;;;;;5.32;3.30;;;11.70;45.70;;;;;;7398863;19;19950;-73
2024/01/11 10:43:15;;;;;;;5.63;3.25;;;11.50;48.20;;;;;;7397963;19;19918;-73
2024/01/11 10:45:41;;;;;;;7.57;3.45;;;11.50;50.00;;;;;;7399746;19;19919;-74
2024/01/11 10:48:15;;;;;;;6.32;3.60;;;11.40;49.80;;;;;;7394938;19;19946;-74
2024/01/11 10:50:46;;;;;;;5.80;3.15;;;11.40;50.50;;;;;;7397141;19;19974;-74
2024/01/11 10:53:29;;;;;;;6.53;3.90;;;11.40;53.00;;;;;;7393253;19;19915;-74
2024/01/11 10:55:57;;;;;;;6.28;3.45;;;11.40;52.50;;;;;;7398028;19;19922;-74
2024/01/11 10:58:26;;;;;;;6.07;3.58;;;11.50;50.50;;;;;;7398518;19;19935;-73
2024/01/11 11:00:54;;;;;;;5.40;3.05;;;12.60;46.70;;;;;;7383362;19;19944;-74
2024/01/11 11:03:24;;;;;;;5.63;3.22;;;13.60;40.20;;;;;;7385278;19;20672;-73
2024/01/11 11:05:53;;;;;;;7.60;4.32;;;13.00;39.00;;;;;;7383208;19;19919;-73
2024/01/11 11:08:20;;;;;;;7.80;4.07;;;12.80;43.20;;;;;;7387337;19;19910;-75
2024/01/11 11:10:47;;;;;;;;;;;12.90;42.40;;;;;;7390818;19;19939;-74
2024/01/11 11:13:18;;;;;;;6.15;3.42;;;12.70;41.70;;;;;;7388768;19;19922;-74
2024/01/11 11:15:51;;;;;;;6.07;3.70;;;12.60;42.80;;;;;;7393832;19;19926;-74
2024/01/11 11:18:18;;;;;;;;;;;12.70;43.50;;;;;;7395679;19;19926;-74
2024/01/11 11:20:46;;;;;;;7.50;4.97;;;12.60;46.30;;;;;;7391447;19;20267;-74
2024/01/11 11:23:14;;;;;;;7.32;4.20;;;12.10;47.50;;;;;;7399934;19;19918;-73
2024/01/11 11:25:41;;;;;;;12.90;5.13;;;12.10;50.20;;;;;;7400113;19;20270;-74
2024/01/11 11:28:07;;;;;;;17.40;5.00;;;12.10;51.40;;;;;;7402316;19;19947;-76
2024/01/11 11:30:38;;;;;;;6.95;4.32;;;12.30;52.10;;;;;;7385724;19;19914;-74
2024/01/11 11:33:22;;;;;;;7.68;3.97;;;12.40;49.20;;;;;;7403458;19;19922;-75
2024/01/11 11:35:53;;;;;;;8.23;3.90;;;12.10;49.20;;;;;;7404354;19;19918;-75
2024/01/11 11:38:22;;;;;;;7.30;3.63;;;12.10;49.10;;;;;;7402886;19;19949;-74
2024/01/11 11:40:50;;;;;;;5.60;3.50;;;12.30;49.30;;;;;;7403732;19;19939;-74
2024/01/11 11:43:18;;;;;;;6.85;3.90;;;12.40;47.40;;;;;;7395756;19;19968;-75
2024/01/11 11:45:46;;;;;;;9.30;3.70;;;12.40;48.10;;;;;;7393537;19;19940;-75
2024/01/11 11:48:34;;;;;;;11.18;4.50;;;12.40;48.40;;;;;;7389513;19;19931;-74
2024/01/11 11:51:06;;;;;;;7.10;4.25;;;12.80;49.10;;;;;;7393374;19;19926;-76
2024/01/11 11:53:40;;;;;;;7.88;4.13;;;12.60;46.10;;;;;;7388660;19;19922;-76
2024/01/11 11:56:07;;;;;;;7.15;4.15;;;12.30;47.00;;;;;;7400208;19;19922;-74
2024/01/11 11:58:34;;;;;;;9.70;4.28;;;12.40;47.20;;;;;;7402538;19;19926;-74
2024/01/11 12:01:01;;;;;;;7.45;4.15;;;12.60;47.50;;;;;;7395858;19;19914;-75
2024/01/11 12:03:38;;;;;;;7.47;4.65;;;12.60;45.50;;;;;;7398987;19;20256;-75
2024/01/11 12:06:10;;;;;;;6.22;3.30;;;12.90;45.40;;;;;;7397417;19;19919;-75
2024/01/11 12:08:36;;;;;;;5.82;3.17;;;13.20;41.80;;;;;;7397174;19;19936;-74
2024/01/11 12:11:03;;;;;;;6.85;3.67;;;13.30;41.60;;;;;;7403650;19;19942;-74
2024/01/11 12:13:29;;;;;;;6.40;3.60;;;13.40;39.90;;;;;;7398733;19;19929;-74
2024/01/11 12:15:56;;;;;;;5.75;2.85;;;14.40;39.10;;;;;;7397986;19;19948;-76
2024/01/11 12:18:22;;;;;;;7.25;3.78;;;15.10;32.20;;;;;;7400349;19;19919;-75
2024/01/11 12:20:47;;;;;;;9.18;3.63;;;16.90;26.10;;;;;;7401279;19;19910;-75
2024/01/11 12:23:16;;;;;;;7.30;3.47;;;17.00;22.20;;;;;;7398456;19;20064;-74
2024/01/11 12:25:42;;;;;;;6.43;3.47;;;15.90;23.70;;;;;;7394521;19;19974;-75
2024/01/11 12:28:08;;;;;;;6.68;3.15;;;14.90;26.20;;;;;;7382393;19;19927;-75
2024/01/11 12:30:33;;;;;;;4.50;2.38;;;14.30;29.00;;;;;;7396820;19;19915;-72
2024/01/11 12:33:03;;;;;;;5.60;2.55;;;14.00;27.90;;;;;;7397688;19;19942;-74
2024/01/11 12:35:31;;;;;;;4.40;2.72;;;14.30;27.30;;;;;;7395238;19;19915;-73
2024/01/11 12:38:06;;;;;;;8.05;3.75;;;14.90;25.30;;;;;;7391800;19;20489;-75
2024/01/11 12:40:42;;;;;;;5.07;2.70;;;15.50;26.30;;;;;;7395521;19;19921;-73
2024/01/11 12:43:08;;;;;;;5.45;3.17;;;17.60;21.40;;;;;;7397153;19;19927;-72
2024/01/11 12:45:39;;;;;;;5.55;3.38;;;18.90;17.60;;;;;;7385355;19;19951;-74
2024/01/11 12:48:07;;;;;;;5.55;3.55;;;18.00;15.90;;;;;;7392690;19;20355;-73
2024/01/11 12:50:33;;;;;;;6.97;3.65;;;17.00;17.90;;;;;;7401497;19;19922;-74
2024/01/11 12:53:20;;;;;;;5.43;3.35;;;16.60;20.50;;;;;;7402706;19;19978;-76